createdAt,value
2018-12-19T00:02:03.075Z,2.30
2018-12-19T00:04:30.563Z,2.30
2018-12-19T00:06:58.050Z,2.30
2018-12-19T00:09:25.619Z,2.40
2018-12-19T00:11:53.079Z,2.60
2018-12-19T00:14:20.598Z,2.50
2018-12-19T00:16:48.447Z,2.40
2018-12-19T00:19:15.990Z,2.30
2018-12-19T00:21:43.497Z,2.10
2018-12-19T00:24:11.077Z,2.30
2018-12-19T00:26:38.653Z,2.30
2018-12-19T00:29:06.206Z,2.30
2018-12-19T00:31:33.835Z,2.40
2018-12-19T00:34:01.477Z,2.40
2018-12-19T00:36:28.963Z,2.30
2018-12-19T00:38:56.458Z,2.30
2018-12-19T00:41:23.974Z,2.30
2018-12-19T00:46:49.358Z,2.30
2018-12-19T00:49:16.841Z,2.40
2018-12-19T00:51:44.317Z,2.40
2018-12-19T00:54:11.819Z,2.40
2018-12-19T00:56:39.417Z,2.60
2018-12-19T00:59:06.923Z,2.50
2018-12-19T01:01:34.435Z,2.50
2018-12-19T01:04:01.909Z,2.50
2018-12-19T01:06:29.541Z,2.40
2018-12-19T01:08:56.994Z,2.40
2018-12-19T01:11:24.499Z,2.40
2018-12-19T01:13:51.946Z,2.50
2018-12-19T01:16:19.426Z,2.40
2018-12-19T01:18:46.851Z,2.50
2018-12-19T01:21:14.355Z,2.50
2018-12-19T01:23:41.809Z,2.40
2018-12-19T01:26:10.280Z,2.60
2018-12-19T01:28:37.711Z,2.40
2018-12-19T01:31:05.185Z,2.50
2018-12-19T01:33:32.645Z,2.40
2018-12-19T01:36:00.109Z,2.40
2018-12-19T01:38:27.576Z,2.40
2018-12-19T01:40:55.050Z,2.30
2018-12-19T01:43:22.518Z,2.30
2018-12-19T01:45:49.986Z,2.50
2018-12-19T01:48:17.460Z,2.50
2018-12-19T01:50:44.962Z,2.30
2018-12-19T01:53:12.555Z,2.50
2018-12-19T01:55:40.257Z,2.50
2018-12-19T01:58:07.714Z,2.50
2018-12-19T02:00:35.308Z,2.70
2018-12-19T02:03:02.824Z,2.70
2018-12-19T02:05:30.343Z,2.70
2018-12-19T02:07:57.834Z,2.60
2018-12-19T02:10:25.389Z,2.60
2018-12-19T02:12:52.932Z,2.40
2018-12-19T02:15:21.428Z,2.40
2018-12-19T02:17:48.868Z,2.30
2018-12-19T02:20:17.344Z,2.40
2018-12-19T02:25:47.973Z,2.30
2018-12-19T02:28:18.495Z,2.40
2018-12-19T02:33:39.654Z,2.50
2018-12-19T02:36:07.155Z,2.30
2018-12-19T02:38:34.594Z,2.40
2018-12-19T02:41:02.082Z,2.30
2018-12-19T02:43:29.572Z,2.40
2018-12-19T02:45:57.280Z,2.40
2018-12-19T02:48:24.771Z,2.30
2018-12-19T02:50:52.265Z,2.40
2018-12-19T02:53:19.832Z,2.40
2018-12-19T02:55:47.291Z,2.40
2018-12-19T02:58:14.825Z,2.40
2018-12-19T03:03:08.074Z,2.40
2018-12-19T03:05:35.591Z,2.60
2018-12-19T03:08:03.199Z,2.70
2018-12-19T03:10:30.660Z,2.70
2018-12-19T03:12:58.213Z,2.80
2018-12-19T03:15:25.740Z,2.70
2018-12-19T03:17:53.266Z,2.60
2018-12-19T03:20:20.796Z,2.60
2018-12-19T03:22:48.304Z,2.70
2018-12-19T03:25:15.788Z,2.60
2018-12-19T03:27:43.338Z,2.60
2018-12-19T03:30:33.678Z,2.60
2018-12-19T03:33:01.135Z,2.50
2018-12-19T03:35:28.591Z,2.60
2018-12-19T03:37:56.081Z,2.60
2018-12-19T03:40:23.586Z,2.70
2018-12-19T03:42:51.062Z,2.70
2018-12-19T03:45:18.626Z,2.70
2018-12-19T03:47:46.123Z,2.70
2018-12-19T03:50:13.917Z,2.60
2018-12-19T03:52:41.426Z,2.50
2018-12-19T03:55:08.914Z,2.40
2018-12-19T03:57:36.620Z,2.50
2018-12-19T04:00:04.815Z,2.50
2018-12-19T04:02:32.290Z,2.50
2018-12-19T04:04:59.762Z,2.40
2018-12-19T04:07:27.239Z,2.50
2018-12-19T04:09:57.930Z,2.50
2018-12-19T04:12:24.281Z,2.40
2018-12-19T04:14:51.826Z,2.50
2018-12-19T04:17:19.557Z,2.50
2018-12-19T04:19:47.022Z,2.30
2018-12-19T04:22:14.567Z,2.40
2018-12-19T04:24:42.101Z,2.30
2018-12-19T04:30:09.449Z,2.40
2018-12-19T04:32:37.139Z,2.40
2018-12-19T04:35:10.183Z,2.40
2018-12-19T04:37:52.956Z,2.40
2018-12-19T04:43:19.760Z,2.30
2018-12-19T04:45:47.266Z,2.40
2018-12-19T04:48:18.159Z,2.40
2018-12-19T04:50:46.469Z,2.40
2018-12-19T04:53:16.107Z,2.40
2018-12-19T04:55:43.632Z,2.40
2018-12-19T04:58:11.649Z,2.40
2018-12-19T05:00:39.689Z,2.40
2018-12-19T05:06:06.664Z,2.30
2018-12-19T05:08:34.708Z,2.40
2018-12-19T05:11:02.745Z,2.40
2018-12-19T05:13:30.220Z,2.40
2018-12-19T05:15:57.715Z,2.50
2018-12-19T05:18:25.175Z,2.50
2018-12-19T05:20:52.660Z,2.50
2018-12-19T05:23:20.131Z,2.40
2018-12-19T05:25:47.582Z,2.50
2018-12-19T05:31:13.708Z,2.60
2018-12-19T05:33:41.198Z,2.60
2018-12-19T05:36:08.651Z,2.50
2018-12-19T05:38:36.180Z,2.50
2018-12-19T05:41:04.491Z,2.50
2018-12-19T05:43:31.971Z,2.40
2018-12-19T05:45:59.441Z,2.50
2018-12-19T05:48:26.905Z,2.50
2018-12-19T05:50:54.420Z,2.50
2018-12-19T05:53:21.912Z,2.50
2018-12-19T05:55:49.375Z,2.60
2018-12-19T05:58:16.884Z,2.70
2018-12-19T06:00:44.435Z,2.70
2018-12-19T06:03:12.914Z,2.60
2018-12-19T06:05:40.385Z,2.70
2018-12-19T06:08:08.867Z,2.60
2018-12-19T06:10:36.322Z,2.70
2018-12-19T06:13:03.808Z,2.60
2018-12-19T06:15:31.263Z,2.70
2018-12-19T06:17:58.733Z,2.70
2018-12-19T06:20:26.212Z,2.60
2018-12-19T06:22:53.668Z,2.60
2018-12-19T06:25:21.114Z,2.60
2018-12-19T06:27:48.836Z,2.60
2018-12-19T06:30:16.924Z,2.60
2018-12-19T06:32:44.433Z,2.50
2018-12-19T06:35:11.988Z,2.60
2018-12-19T06:37:39.438Z,2.60
2018-12-19T06:40:07.379Z,2.60
2018-12-19T06:42:34.827Z,2.70
2018-12-19T06:45:02.304Z,2.70
2018-12-19T06:47:29.770Z,2.70
2018-12-19T06:49:57.210Z,2.60
2018-12-19T06:52:24.686Z,2.70
2018-12-19T06:54:52.170Z,2.70
2018-12-19T06:57:19.677Z,2.80
2018-12-19T06:59:47.155Z,2.90
2018-12-19T07:02:14.630Z,2.90
2018-12-19T07:04:42.086Z,2.80
2018-12-19T07:07:09.625Z,2.80
2018-12-19T07:09:37.079Z,2.80
2018-12-19T07:12:04.587Z,2.80
2018-12-19T07:14:32.180Z,2.90
2018-12-19T07:16:59.653Z,2.90
2018-12-19T07:19:27.210Z,2.90
2018-12-19T07:21:55.184Z,3.00
2018-12-19T07:24:22.949Z,2.90
2018-12-19T07:26:50.482Z,3.00
2018-12-19T07:29:17.945Z,2.90
2018-12-19T07:31:45.448Z,2.90
2018-12-19T07:34:12.968Z,3.00
2018-12-19T07:36:40.471Z,3.00
2018-12-19T07:39:08.096Z,3.00
2018-12-19T07:41:35.635Z,3.10
2018-12-19T07:44:03.101Z,2.90
2018-12-19T07:46:30.611Z,3.10
2018-12-19T07:48:58.087Z,3.00
2018-12-19T07:51:25.611Z,3.10
2018-12-19T07:53:53.068Z,3.40
2018-12-19T07:56:20.651Z,3.50
2018-12-19T07:58:48.119Z,3.50
2018-12-19T08:01:15.638Z,3.50
2018-12-19T08:03:43.122Z,3.30
2018-12-19T08:06:10.640Z,3.30
2018-12-19T08:08:38.157Z,3.30
2018-12-19T08:11:05.650Z,3.30
2018-12-19T08:13:33.138Z,3.30
2018-12-19T08:16:00.691Z,3.40
2018-12-19T08:18:29.656Z,3.40
2018-12-19T08:20:58.016Z,3.50
2018-12-19T08:23:26.687Z,3.40
2018-12-19T08:25:57.179Z,3.50
2018-12-19T08:28:26.634Z,3.40
2018-12-19T08:31:00.813Z,3.20
2018-12-19T08:33:30.040Z,3.30
2018-12-19T08:35:57.746Z,3.30
2018-12-19T08:38:25.673Z,3.40
2018-12-19T08:40:58.805Z,3.30
2018-12-19T08:43:24.667Z,3.30
2018-12-19T08:45:52.938Z,3.40
2018-12-19T08:48:20.819Z,3.40
2018-12-19T08:50:50.479Z,3.50
2018-12-19T08:53:18.581Z,3.50
2018-12-19T08:55:46.813Z,3.60
2018-12-19T08:58:14.607Z,3.50
2018-12-19T09:00:42.848Z,3.70
2018-12-19T09:03:12.552Z,3.80
2018-12-19T09:05:41.591Z,3.70
2018-12-19T09:08:09.634Z,3.60
2018-12-19T09:10:37.733Z,3.70
2018-12-19T09:13:05.358Z,3.60
2018-12-19T09:15:39.434Z,3.70
2018-12-19T09:18:07.077Z,3.50
2018-12-19T09:20:34.861Z,3.60
2018-12-19T09:23:02.435Z,3.60
2018-12-19T09:25:30.166Z,3.80
2018-12-19T09:27:57.768Z,3.90
2018-12-19T09:30:25.443Z,3.80
2018-12-19T09:32:53.071Z,3.70
2018-12-19T09:35:20.692Z,3.80
2018-12-19T09:37:48.381Z,3.80
2018-12-19T09:40:15.920Z,3.80
2018-12-19T09:42:43.498Z,3.80
2018-12-19T09:45:10.984Z,3.90
2018-12-19T09:47:38.526Z,3.90
2018-12-19T09:50:06.252Z,3.80
2018-12-19T09:52:33.785Z,3.90
2018-12-19T09:55:01.480Z,3.70
2018-12-19T09:57:29.355Z,3.70
2018-12-19T09:59:57.071Z,3.80
2018-12-19T10:02:24.708Z,3.90
2018-12-19T10:04:52.345Z,3.90
2018-12-19T10:07:20.064Z,4.20
2018-12-19T10:09:48.609Z,4.20
2018-12-19T10:12:16.339Z,4.00
2018-12-19T10:14:44.250Z,4.00
2018-12-19T10:17:11.843Z,4.00
2018-12-19T10:19:39.424Z,3.90
2018-12-19T10:22:07.525Z,4.10
2018-12-19T10:24:40.800Z,4.10
2018-12-19T10:27:08.369Z,4.20
2018-12-19T10:29:35.957Z,4.50
2018-12-19T10:32:03.525Z,4.80
2018-12-19T10:34:31.954Z,4.80
2018-12-19T10:36:59.723Z,4.80
2018-12-19T10:39:27.309Z,4.70
2018-12-19T10:41:55.009Z,4.70
2018-12-19T10:44:22.907Z,4.70
2018-12-19T10:46:50.657Z,4.90
2018-12-19T10:49:18.228Z,5.00
2018-12-19T10:51:46.475Z,5.10
2018-12-19T10:54:14.616Z,5.20
2018-12-19T10:56:43.296Z,5.00
2018-12-19T10:59:11.250Z,5.00
2018-12-19T11:01:39.057Z,5.20
2018-12-19T11:04:06.863Z,5.30
2018-12-19T11:06:34.389Z,5.30
2018-12-19T11:09:01.986Z,5.60
2018-12-19T11:11:32.412Z,5.70
2018-12-19T11:13:59.086Z,5.90
2018-12-19T11:16:26.729Z,5.90
2018-12-19T11:18:54.361Z,6.00
2018-12-19T11:21:21.904Z,6.00
2018-12-19T11:23:49.443Z,6.00
2018-12-19T11:26:17.026Z,6.00
2018-12-19T11:28:45.447Z,5.90
2018-12-19T11:31:13.217Z,5.80
2018-12-19T11:33:40.908Z,5.80
2018-12-19T11:36:08.514Z,5.80
2018-12-19T11:38:36.505Z,5.60
2018-12-19T11:41:04.396Z,5.40
2018-12-19T11:43:32.008Z,5.40
2018-12-19T11:45:59.743Z,5.40
2018-12-19T11:48:27.412Z,5.30
2018-12-19T11:50:55.048Z,5.30
2018-12-19T11:53:22.617Z,5.20
2018-12-19T11:55:50.279Z,5.20
2018-12-19T11:58:17.926Z,5.10
2018-12-19T12:00:45.477Z,5.10
2018-12-19T12:03:13.121Z,5.10
2018-12-19T12:05:41.075Z,5.00
2018-12-19T12:08:08.978Z,5.00
2018-12-19T12:10:36.932Z,4.90
2018-12-19T12:13:04.781Z,4.90
2018-12-19T12:15:32.403Z,4.80
2018-12-19T12:18:00.031Z,4.90
2018-12-19T12:20:27.691Z,5.00
2018-12-19T12:22:55.344Z,4.90
2018-12-19T12:25:23.616Z,4.90
2018-12-19T12:27:51.242Z,4.90
2018-12-19T12:30:19.759Z,5.00
2018-12-19T12:32:47.309Z,5.00
2018-12-19T12:35:14.845Z,4.90
2018-12-19T12:37:42.488Z,5.00
2018-12-19T12:40:09.977Z,5.10
2018-12-19T12:42:37.523Z,5.20
2018-12-19T12:45:05.388Z,5.30
2018-12-19T12:47:32.961Z,5.40
2018-12-19T12:50:00.453Z,5.50
2018-12-19T12:52:27.917Z,5.40
2018-12-19T12:54:55.377Z,5.40
2018-12-19T12:57:22.856Z,5.40
2018-12-19T12:59:52.306Z,5.40
2018-12-19T13:02:19.731Z,5.40
2018-12-19T13:04:47.314Z,5.40
2018-12-19T13:07:14.780Z,5.40
2018-12-19T13:09:42.450Z,5.40
2018-12-19T13:12:09.969Z,5.50
2018-12-19T13:14:37.450Z,5.50
2018-12-19T13:17:04.893Z,5.40
2018-12-19T13:19:32.437Z,5.50
2018-12-19T13:21:59.871Z,5.60
2018-12-19T13:24:27.331Z,5.70
2018-12-19T13:26:54.816Z,5.90
2018-12-19T13:29:22.271Z,5.90
2018-12-19T13:31:49.966Z,6.00
2018-12-19T13:34:17.468Z,6.00
2018-12-19T13:36:44.904Z,5.90
2018-12-19T13:39:12.393Z,6.00
2018-12-19T13:41:39.875Z,6.00
2018-12-19T13:44:07.356Z,5.90
2018-12-19T13:46:34.807Z,5.90
2018-12-19T13:49:02.391Z,5.80
2018-12-19T13:51:29.859Z,5.70
2018-12-19T13:53:57.337Z,5.70
2018-12-19T13:56:24.819Z,5.70
2018-12-19T13:58:52.726Z,5.70
2018-12-19T14:01:20.232Z,5.60
2018-12-19T14:03:47.929Z,5.50
2018-12-19T14:06:15.495Z,5.50
2018-12-19T14:08:42.982Z,5.50
2018-12-19T14:11:10.463Z,5.50
2018-12-19T14:13:38.059Z,5.50
2018-12-19T14:16:05.622Z,5.40
2018-12-19T14:18:33.099Z,5.40
2018-12-19T14:21:00.607Z,5.30
2018-12-19T14:23:28.364Z,5.40
2018-12-19T14:25:55.898Z,5.30
2018-12-19T14:28:23.383Z,5.30
2018-12-19T14:30:51.010Z,5.40
2018-12-19T14:33:18.449Z,5.20
2018-12-19T14:35:46.109Z,5.40
2018-12-19T14:38:13.571Z,5.40
2018-12-19T14:40:43.238Z,5.30
2018-12-19T14:43:16.276Z,5.30
2018-12-19T14:45:47.906Z,5.10
2018-12-19T14:48:16.136Z,5.20
2018-12-19T14:50:43.749Z,5.10
2018-12-19T14:53:11.205Z,5.20
2018-12-19T14:55:39.281Z,4.90
2018-12-19T14:58:07.745Z,5.00
2018-12-19T15:00:35.555Z,5.00
2018-12-19T15:03:03.243Z,4.90
2018-12-19T15:05:30.852Z,5.00
2018-12-19T15:07:58.760Z,5.00
2018-12-19T15:10:35.415Z,4.80
2018-12-19T15:13:02.940Z,4.80
2018-12-19T15:15:30.474Z,4.70
2018-12-19T15:17:57.973Z,4.70
2018-12-19T15:20:25.497Z,4.80
2018-12-19T15:22:52.974Z,4.70
2018-12-19T15:25:20.450Z,4.60
2018-12-19T15:27:48.041Z,4.80
2018-12-19T15:30:15.527Z,4.70
2018-12-19T15:32:43.182Z,4.70
2018-12-19T15:35:11.798Z,4.60
2018-12-19T15:37:39.315Z,4.60
2018-12-19T15:40:07.099Z,4.60
2018-12-19T15:42:34.680Z,4.60
2018-12-19T15:48:00.257Z,4.70
2018-12-19T15:50:30.415Z,4.60
2018-12-19T15:52:57.961Z,4.80
2018-12-19T15:55:27.606Z,4.70
2018-12-19T15:57:55.128Z,4.70
2018-12-19T16:00:23.606Z,4.70
2018-12-19T16:02:51.132Z,4.70
2018-12-19T16:05:18.762Z,4.70
2018-12-19T16:07:46.329Z,4.60
2018-12-19T16:10:13.874Z,4.60
2018-12-19T16:12:41.371Z,4.60
2018-12-19T16:15:10.895Z,4.70
2018-12-19T16:17:38.488Z,4.60
2018-12-19T16:20:07.487Z,4.60
2018-12-19T16:22:34.968Z,4.70
2018-12-19T16:25:02.517Z,4.60
2018-12-19T16:27:30.594Z,4.60
2018-12-19T16:29:58.067Z,4.50
2018-12-19T16:32:25.661Z,4.60
2018-12-19T16:34:53.131Z,4.60
2018-12-19T16:37:20.594Z,4.50
2018-12-19T16:39:48.098Z,4.50
2018-12-19T16:42:15.715Z,4.50
2018-12-19T16:44:43.209Z,4.40
2018-12-19T16:47:10.671Z,4.40
2018-12-19T16:49:41.830Z,4.30
2018-12-19T16:52:10.004Z,4.30
2018-12-19T16:54:38.922Z,4.30
2018-12-19T16:57:06.410Z,4.10
2018-12-19T16:59:37.694Z,4.20
2018-12-19T17:02:05.192Z,4.10
2018-12-19T17:04:37.186Z,4.10
2018-12-19T17:07:04.689Z,4.00
2018-12-19T17:09:32.141Z,3.90
2018-12-19T17:12:00.440Z,4.00
2018-12-19T17:14:27.978Z,4.00
2018-12-19T17:16:59.657Z,4.20
2018-12-19T17:19:27.169Z,4.20
2018-12-19T17:21:54.654Z,4.20
2018-12-19T17:24:26.766Z,4.10
2018-12-19T17:26:54.274Z,4.10
2018-12-19T17:29:21.780Z,4.10
2018-12-19T17:31:49.451Z,4.30
2018-12-19T17:34:16.970Z,4.30
2018-12-19T17:36:44.451Z,4.20
2018-12-19T17:39:16.801Z,4.20
2018-12-19T17:41:44.352Z,4.10
2018-12-19T17:44:12.914Z,4.10
2018-12-19T17:46:40.411Z,4.20
2018-12-19T17:49:07.941Z,4.30
2018-12-19T17:51:35.555Z,4.30
2018-12-19T17:54:03.230Z,4.10
2018-12-19T17:56:30.668Z,4.20
2018-12-19T17:58:58.317Z,4.20
2018-12-19T18:01:25.948Z,4.10
2018-12-19T18:03:53.458Z,4.10
2018-12-19T18:06:20.984Z,4.10
2018-12-19T18:08:48.463Z,4.00
2018-12-19T18:11:16.983Z,4.20
2018-12-19T18:13:44.587Z,4.20
2018-12-19T18:16:12.265Z,4.20
2018-12-19T18:18:39.992Z,4.30
2018-12-19T18:21:07.554Z,4.20
2018-12-19T18:23:35.053Z,4.10
2018-12-19T18:26:02.619Z,4.00
2018-12-19T18:28:30.096Z,4.20
2018-12-19T18:30:57.865Z,4.20
2018-12-19T18:33:25.317Z,4.10
2018-12-19T18:35:52.950Z,4.20
2018-12-19T18:38:20.445Z,4.40
2018-12-19T18:40:47.943Z,4.40
2018-12-19T18:43:15.471Z,4.50
2018-12-19T18:45:43.023Z,4.50
2018-12-19T18:48:10.703Z,4.40
2018-12-19T18:50:38.186Z,4.30
2018-12-19T18:53:05.667Z,4.40
2018-12-19T18:55:33.207Z,4.50
2018-12-19T18:58:01.134Z,4.50
2018-12-19T19:00:33.307Z,4.50
2018-12-19T19:03:01.114Z,4.40
2018-12-19T19:05:28.655Z,4.50
2018-12-19T19:07:57.438Z,4.40
2018-12-19T19:10:25.048Z,4.40
2018-12-19T19:12:52.570Z,4.30
2018-12-19T19:15:20.371Z,4.40
2018-12-19T19:17:48.837Z,4.50
2018-12-19T19:20:17.087Z,4.40
2018-12-19T19:22:44.644Z,4.40
2018-12-19T19:25:13.797Z,4.40
2018-12-19T19:27:41.381Z,4.50
2018-12-19T19:30:10.461Z,4.60
2018-12-19T19:32:38.198Z,4.50
2018-12-19T19:35:06.022Z,4.70
2018-12-19T19:37:33.942Z,4.80
2018-12-19T19:40:05.135Z,4.60
2018-12-19T19:42:32.679Z,4.60
2018-12-19T19:45:02.354Z,4.50
2018-12-19T19:47:30.132Z,4.50
2018-12-19T19:49:57.668Z,4.60
2018-12-19T19:52:25.260Z,4.50
2018-12-19T19:54:52.867Z,4.50
2018-12-19T19:57:20.413Z,4.60
2018-12-19T19:59:48.244Z,4.70
2018-12-19T20:02:15.847Z,4.60
2018-12-19T20:04:43.371Z,4.60
2018-12-19T20:07:10.963Z,4.50
2018-12-19T20:09:38.716Z,4.50
2018-12-19T20:12:06.245Z,4.60
2018-12-19T20:14:33.913Z,4.60
2018-12-19T20:17:02.368Z,4.60
2018-12-19T20:19:31.214Z,4.80
2018-12-19T20:21:58.980Z,4.80
2018-12-19T20:24:27.096Z,4.60
2018-12-19T20:26:54.815Z,4.60
2018-12-19T20:29:22.894Z,4.70
2018-12-19T20:31:50.658Z,4.70
2018-12-19T20:34:18.409Z,4.60
2018-12-19T20:36:46.129Z,4.70
2018-12-19T20:39:13.947Z,4.60
2018-12-19T20:41:41.686Z,4.60
2018-12-19T20:44:09.535Z,4.60
2018-12-19T20:46:38.439Z,4.60
2018-12-19T20:49:06.251Z,4.60
2018-12-19T20:51:33.977Z,4.60
2018-12-19T20:54:01.756Z,4.60
2018-12-19T20:56:29.429Z,4.60
2018-12-19T20:58:56.969Z,4.60
2018-12-19T21:01:24.789Z,4.70
2018-12-19T21:03:52.902Z,4.70
2018-12-19T21:06:36.500Z,4.60
2018-12-19T21:09:06.771Z,4.60
2018-12-19T21:11:34.267Z,4.40
2018-12-19T21:14:01.784Z,4.50
2018-12-19T21:16:34.815Z,4.50
2018-12-19T21:19:03.421Z,4.40
2018-12-19T21:21:30.962Z,4.50
2018-12-19T21:23:58.544Z,4.40
2018-12-19T21:26:26.205Z,4.50
2018-12-19T21:28:54.687Z,4.60
2018-12-19T21:31:22.347Z,4.40
2018-12-19T21:33:49.877Z,4.70
2018-12-19T21:36:17.469Z,4.70
2018-12-19T21:38:45.124Z,4.60
2018-12-19T21:41:12.770Z,4.70
2018-12-19T21:43:40.376Z,4.50
2018-12-19T21:46:08.540Z,4.40
2018-12-19T21:48:36.127Z,4.50
2018-12-19T21:51:03.712Z,4.70
2018-12-19T21:53:31.376Z,4.80
2018-12-19T21:55:59.573Z,4.80
2018-12-19T21:58:27.187Z,4.70
2018-12-19T22:00:54.892Z,4.80
2018-12-19T22:03:22.581Z,4.70
2018-12-19T22:05:50.218Z,4.60
2018-12-19T22:08:17.934Z,4.40
2018-12-19T22:10:45.756Z,4.50
2018-12-19T22:13:13.319Z,4.60
2018-12-19T22:15:41.970Z,4.70
2018-12-19T22:19:12.724Z,4.50
2018-12-19T22:21:40.271Z,4.40
2018-12-19T22:24:17.151Z,4.40
2018-12-19T22:26:51.018Z,4.40
2018-12-19T22:29:18.790Z,4.30
2018-12-19T22:34:38.905Z,4.40
2018-12-19T22:37:06.473Z,4.60
2018-12-19T22:39:40.284Z,4.60
2018-12-19T22:42:07.908Z,4.50
2018-12-19T22:44:41.203Z,4.40
2018-12-19T22:47:08.927Z,4.40
2018-12-19T22:49:39.927Z,4.30
2018-12-19T22:52:07.576Z,4.30
2018-12-19T22:54:35.244Z,4.30
2018-12-19T22:57:02.814Z,4.30
2018-12-19T22:59:30.405Z,4.40
2018-12-19T23:02:04.430Z,4.60
2018-12-19T23:04:35.625Z,4.60
2018-12-19T23:07:03.282Z,4.40
2018-12-19T23:09:43.778Z,4.40
2018-12-19T23:12:11.447Z,4.40
2018-12-19T23:17:39.401Z,4.40
2018-12-19T23:20:08.577Z,4.30
2018-12-19T23:22:36.117Z,4.40
2018-12-19T23:25:04.140Z,4.70
2018-12-19T23:27:38.008Z,4.80
2018-12-19T23:30:06.950Z,4.70
2018-12-19T23:32:41.027Z,4.50
2018-12-19T23:35:14.552Z,4.30
2018-12-19T23:40:47.778Z,4.40
2018-12-19T23:43:21.244Z,4.40
2018-12-19T23:45:48.939Z,4.40
2018-12-19T23:48:16.496Z,4.70
2018-12-19T23:56:31.318Z,4.60
2018-12-19T23:58:58.920Z,4.80
